createdAt,value
2023-02-16T00:01:02.398Z,24.27
2023-02-16T00:02:36.127Z,23.17
2023-02-16T00:04:14.791Z,22.73
2023-02-16T00:05:47.591Z,23.90
2023-02-16T00:07:20.985Z,24.27
2023-02-16T00:08:55.533Z,24.40
2023-02-16T00:10:30.876Z,23.08
2023-02-16T00:12:21.829Z,24.20
2023-02-16T00:13:56.587Z,24.15
2023-02-16T00:15:30.039Z,24.20
2023-02-16T00:17:03.686Z,23.10
2023-02-16T00:18:36.065Z,23.40
2023-02-16T00:20:12.610Z,23.23
2023-02-16T00:21:46.044Z,22.42
2023-02-16T00:23:19.408Z,23.40
2023-02-16T00:24:52.796Z,23.35
2023-02-16T00:26:27.150Z,22.35
2023-02-16T00:28:00.617Z,22.20
2023-02-16T00:29:36.162Z,23.67
2023-02-16T00:31:10.874Z,22.33
2023-02-16T00:32:44.383Z,22.10
2023-02-16T00:34:26.655Z,22.20
2023-02-16T00:36:00.266Z,22.45
2023-02-16T00:37:33.724Z,22.50
2023-02-16T00:39:07.162Z,21.70
2023-02-16T00:40:40.971Z,22.83
2023-02-16T00:42:18.216Z,22.35
2023-02-16T00:43:51.632Z,21.88
2023-02-16T00:45:26.466Z,22.42
2023-02-16T00:47:00.898Z,22.48
2023-02-16T00:48:35.878Z,22.88
2023-02-16T00:50:16.122Z,22.73
2023-02-16T00:51:52.216Z,23.08
2023-02-16T00:53:25.759Z,23.05
2023-02-16T00:54:59.506Z,23.52
2023-02-16T00:56:33.561Z,22.08
2023-02-16T00:58:08.944Z,22.77
2023-02-16T00:59:42.381Z,22.00
2023-02-16T01:01:18.359Z,21.60
2023-02-16T01:02:55.514Z,22.33
2023-02-16T01:04:27.954Z,21.65
2023-02-16T01:06:15.804Z,22.55
2023-02-16T01:08:07.115Z,21.98
2023-02-16T01:09:57.993Z,21.30
2023-02-16T01:11:31.682Z,20.90
2023-02-16T01:13:05.120Z,21.55
2023-02-16T01:14:40.688Z,21.10
2023-02-16T01:16:15.547Z,22.35
2023-02-16T01:17:50.346Z,22.45
2023-02-16T01:19:23.748Z,22.00
2023-02-16T01:20:57.150Z,22.02
2023-02-16T01:22:33.379Z,22.85
2023-02-16T01:24:06.985Z,21.95
2023-02-16T01:25:41.411Z,21.80
2023-02-16T01:27:15.256Z,21.60
2023-02-16T01:28:51.311Z,21.70
2023-02-16T01:30:25.971Z,21.15
2023-02-16T01:31:59.509Z,21.50
2023-02-16T01:33:34.651Z,20.55
2023-02-16T01:35:08.589Z,21.27
2023-02-16T01:36:43.532Z,20.50
2023-02-16T01:38:18.784Z,20.98
2023-02-16T01:39:53.649Z,20.58
2023-02-16T01:41:31.464Z,20.58
2023-02-16T01:43:08.637Z,20.00
2023-02-16T01:44:44.800Z,20.98
2023-02-16T01:46:21.663Z,22.00
2023-02-16T01:47:56.752Z,20.58
2023-02-16T01:49:31.531Z,19.92
2023-02-16T01:51:07.221Z,21.17
2023-02-16T01:52:43.989Z,21.25
2023-02-16T01:54:23.174Z,21.05
2023-02-16T01:55:57.848Z,22.05
2023-02-16T01:57:35.971Z,20.55
2023-02-16T01:59:13.716Z,21.08
2023-02-16T02:01:06.062Z,21.33
2023-02-16T02:02:41.285Z,20.77
2023-02-16T02:04:40.128Z,20.98
2023-02-16T02:06:15.555Z,19.67
2023-02-16T02:07:51.787Z,20.85
2023-02-16T02:09:27.375Z,20.50
2023-02-16T02:11:06.250Z,20.33
2023-02-16T02:12:45.344Z,20.90
2023-02-16T02:14:19.855Z,20.85
2023-02-16T02:15:53.678Z,22.85
2023-02-16T02:17:27.620Z,20.50
2023-02-16T02:19:01.061Z,20.52
2023-02-16T02:21:00.679Z,21.27
2023-02-16T02:23:06.259Z,20.95
2023-02-16T02:24:57.123Z,19.60
2023-02-16T02:26:50.778Z,19.85
2023-02-16T02:28:27.026Z,20.65
2023-02-16T02:30:09.507Z,21.15
2023-02-16T02:31:48.745Z,20.45
2023-02-16T02:33:34.984Z,21.27
2023-02-16T02:35:14.030Z,20.98
2023-02-16T02:36:50.676Z,21.27
2023-02-16T02:38:27.020Z,21.17
2023-02-16T02:40:05.418Z,21.58
2023-02-16T02:41:58.212Z,21.70
2023-02-16T02:43:37.617Z,20.52
2023-02-16T02:45:13.516Z,20.65
2023-02-16T02:46:47.764Z,19.52
2023-02-16T02:48:21.158Z,20.10
2023-02-16T02:49:54.271Z,20.95
2023-02-16T02:51:30.851Z,19.73
2023-02-16T02:53:09.745Z,20.63
2023-02-16T02:55:01.984Z,20.42
2023-02-16T02:56:52.919Z,21.20
2023-02-16T02:58:44.908Z,20.52
2023-02-16T03:00:39.598Z,20.02
2023-02-16T03:02:14.199Z,19.98
2023-02-16T03:03:49.149Z,19.88
2023-02-16T03:05:24.928Z,20.35
2023-02-16T03:06:58.097Z,20.85
2023-02-16T03:08:33.065Z,19.55
2023-02-16T03:10:20.606Z,18.95
2023-02-16T03:12:13.104Z,19.55
2023-02-16T03:13:48.540Z,19.02
2023-02-16T03:15:24.564Z,19.17
2023-02-16T03:17:16.919Z,19.63
2023-02-16T03:19:07.648Z,19.15
2023-02-16T03:20:59.143Z,19.00
2023-02-16T03:22:51.161Z,18.38
2023-02-16T03:24:45.552Z,19.10
2023-02-16T03:26:38.084Z,18.42
2023-02-16T03:28:30.095Z,19.33
2023-02-16T03:30:04.874Z,18.63
2023-02-16T03:31:39.249Z,18.70
2023-02-16T03:33:12.745Z,19.73
2023-02-16T03:34:46.321Z,19.42
2023-02-16T03:36:19.925Z,19.73
2023-02-16T03:37:53.536Z,19.40
2023-02-16T03:39:27.407Z,19.58
2023-02-16T03:40:59.823Z,19.85
2023-02-16T03:42:33.216Z,18.95
2023-02-16T03:44:05.831Z,19.10
2023-02-16T03:45:44.611Z,19.13
2023-02-16T03:47:19.394Z,18.88
2023-02-16T03:48:52.821Z,18.92
2023-02-16T03:50:27.105Z,19.40
2023-02-16T03:52:00.482Z,19.02
2023-02-16T03:53:33.871Z,18.52
2023-02-16T03:55:07.677Z,18.58
2023-02-16T03:56:41.045Z,18.35
2023-02-16T03:58:15.677Z,17.40
2023-02-16T03:59:50.891Z,18.73
2023-02-16T04:01:24.246Z,18.83
2023-02-16T04:02:58.153Z,18.50
2023-02-16T04:04:31.660Z,19.10
2023-02-16T04:06:05.164Z,19.35
2023-02-16T04:07:38.538Z,19.40
2023-02-16T04:09:12.042Z,19.15
2023-02-16T04:10:44.585Z,19.70
2023-02-16T04:12:35.509Z,20.70
2023-02-16T04:14:08.879Z,19.63
2023-02-16T04:15:42.367Z,19.88
2023-02-16T04:17:14.846Z,20.73
2023-02-16T04:18:49.660Z,20.23
2023-02-16T04:20:24.003Z,20.13
2023-02-16T04:21:56.516Z,21.00
2023-02-16T04:23:29.897Z,19.65
2023-02-16T04:25:03.288Z,19.67
2023-02-16T04:26:36.644Z,20.48
2023-02-16T04:28:10.012Z,20.33
2023-02-16T04:29:43.419Z,20.58
2023-02-16T04:31:16.838Z,20.23
2023-02-16T04:32:50.339Z,20.13
2023-02-16T04:34:25.059Z,20.08
2023-02-16T04:35:58.443Z,19.83
2023-02-16T04:37:31.992Z,20.13
2023-02-16T04:39:05.466Z,20.10
2023-02-16T04:40:38.844Z,20.67
2023-02-16T04:42:11.222Z,20.25
2023-02-16T04:43:44.585Z,20.23
2023-02-16T04:45:18.048Z,21.35
2023-02-16T04:46:51.476Z,19.65
2023-02-16T04:48:24.854Z,19.42
2023-02-16T04:49:58.610Z,19.48
2023-02-16T04:51:32.088Z,20.90
2023-02-16T04:53:05.523Z,18.65
2023-02-16T04:54:38.889Z,19.60
2023-02-16T04:56:12.618Z,19.63
2023-02-16T04:57:46.570Z,20.88
2023-02-16T04:59:19.953Z,19.83
2023-02-16T05:00:53.351Z,19.55
2023-02-16T05:02:25.742Z,18.77
2023-02-16T05:03:59.096Z,18.27
2023-02-16T05:05:35.139Z,19.25
2023-02-16T05:07:08.514Z,18.98
2023-02-16T05:08:41.908Z,18.52
2023-02-16T05:10:15.248Z,18.75
2023-02-16T05:12:06.257Z,17.15
2023-02-16T05:13:57.349Z,16.77
2023-02-16T05:15:30.756Z,17.83
2023-02-16T05:17:03.190Z,17.45
2023-02-16T05:18:36.746Z,17.00
2023-02-16T05:20:10.449Z,17.13
2023-02-16T05:21:44.205Z,18.02
2023-02-16T05:23:17.569Z,18.20
2023-02-16T05:24:51.411Z,19.65
2023-02-16T05:26:23.940Z,18.92
2023-02-16T05:27:57.526Z,18.83
2023-02-16T05:29:30.915Z,18.65
2023-02-16T05:31:04.692Z,18.27
2023-02-16T05:32:38.286Z,18.23
2023-02-16T05:34:11.782Z,18.70
2023-02-16T05:35:45.156Z,19.17
2023-02-16T05:37:20.520Z,19.13
2023-02-16T05:38:54.049Z,19.23
2023-02-16T05:40:27.531Z,18.70
2023-02-16T05:42:01.015Z,20.38
2023-02-16T05:43:34.418Z,21.42
2023-02-16T05:45:08.096Z,18.88
2023-02-16T05:46:40.891Z,18.58
2023-02-16T05:48:14.363Z,19.80
2023-02-16T05:49:47.863Z,19.20
2023-02-16T05:51:20.251Z,18.77
2023-02-16T05:52:55.057Z,20.77
2023-02-16T05:54:28.103Z,19.02
2023-02-16T05:56:01.581Z,20.20
2023-02-16T05:57:35.717Z,20.48
2023-02-16T05:59:10.094Z,20.30
2023-02-16T06:00:43.532Z,20.77
2023-02-16T06:02:16.921Z,19.95
2023-02-16T06:03:50.330Z,19.60
2023-02-16T06:05:23.721Z,20.42
2023-02-16T06:06:57.210Z,20.02
2023-02-16T06:08:32.345Z,19.42
2023-02-16T06:10:06.270Z,19.70
2023-02-16T06:11:38.812Z,19.75
2023-02-16T06:13:12.190Z,20.02
2023-02-16T06:14:45.589Z,19.02
2023-02-16T06:16:19.089Z,18.58
2023-02-16T06:17:52.506Z,19.70
2023-02-16T06:19:25.923Z,19.50
2023-02-16T06:20:59.345Z,20.25
2023-02-16T06:22:32.780Z,20.73
2023-02-16T06:24:08.224Z,19.83
2023-02-16T06:25:43.593Z,19.95
2023-02-16T06:27:17.006Z,19.83
2023-02-16T06:28:49.655Z,20.60
2023-02-16T06:30:23.379Z,20.30
2023-02-16T06:31:56.874Z,20.90
2023-02-16T06:33:30.322Z,21.45
2023-02-16T06:35:04.306Z,20.27
2023-02-16T06:36:37.744Z,20.10
2023-02-16T06:38:11.141Z,21.60
2023-02-16T06:39:47.386Z,21.85
2023-02-16T06:41:32.274Z,20.48
2023-02-16T06:43:05.742Z,19.70
2023-02-16T06:44:44.221Z,20.67
2023-02-16T06:46:16.736Z,19.55
2023-02-16T06:47:50.140Z,19.83
2023-02-16T06:49:26.057Z,19.52
2023-02-16T06:51:01.125Z,18.80
2023-02-16T06:52:34.686Z,19.00
2023-02-16T06:54:08.089Z,18.52
2023-02-16T06:55:41.845Z,18.65
2023-02-16T06:57:15.474Z,18.83
2023-02-16T06:58:48.876Z,18.38
2023-02-16T07:00:22.608Z,18.92
2023-02-16T07:01:55.979Z,18.17
2023-02-16T07:03:29.441Z,17.55
2023-02-16T07:05:03.327Z,16.92
2023-02-16T07:06:36.709Z,17.52
2023-02-16T07:08:10.086Z,17.45
2023-02-16T07:09:43.560Z,16.92
2023-02-16T07:11:19.264Z,16.40
2023-02-16T07:12:52.717Z,16.77
2023-02-16T07:14:26.093Z,16.35
2023-02-16T07:15:59.523Z,17.83
2023-02-16T07:17:32.962Z,17.38
2023-02-16T07:19:06.979Z,17.98
2023-02-16T07:20:40.452Z,19.35
2023-02-16T07:22:13.856Z,19.50
2023-02-16T07:23:47.390Z,17.58
2023-02-16T07:25:20.786Z,17.70
2023-02-16T07:26:56.638Z,17.92
2023-02-16T07:28:30.307Z,18.05
2023-02-16T07:30:03.986Z,18.08
2023-02-16T07:31:37.661Z,18.15
2023-02-16T07:33:11.253Z,18.60
2023-02-16T07:34:45.933Z,17.63
2023-02-16T07:36:19.412Z,17.60
2023-02-16T07:37:52.791Z,17.80
2023-02-16T07:39:26.299Z,18.60
2023-02-16T07:40:59.819Z,17.73
2023-02-16T07:42:35.314Z,16.42
2023-02-16T07:44:10.248Z,18.33
2023-02-16T07:45:43.825Z,17.95
2023-02-16T07:47:17.952Z,17.60
2023-02-16T07:48:51.582Z,17.42
2023-02-16T07:50:24.963Z,17.98
2023-02-16T07:51:58.340Z,17.40
2023-02-16T07:53:31.949Z,19.17
2023-02-16T07:55:05.652Z,20.02
2023-02-16T07:56:39.075Z,19.00
2023-02-16T07:58:27.079Z,19.35
2023-02-16T08:00:00.557Z,18.23
2023-02-16T08:01:35.239Z,17.50
2023-02-16T08:03:08.774Z,18.85
2023-02-16T08:04:42.194Z,18.80
2023-02-16T08:06:15.711Z,18.73
2023-02-16T08:07:49.180Z,18.93
2023-02-16T08:09:22.680Z,18.10
2023-02-16T08:10:56.129Z,18.88
2023-02-16T08:12:29.520Z,18.97
2023-02-16T08:14:04.273Z,17.33
2023-02-16T08:15:37.650Z,18.13
2023-02-16T08:17:11.324Z,17.63
2023-02-16T08:18:45.198Z,18.23
2023-02-16T08:20:18.644Z,18.07
2023-02-16T08:21:52.047Z,18.70
2023-02-16T08:23:24.828Z,17.47
2023-02-16T08:24:59.476Z,18.03
2023-02-16T08:26:36.783Z,17.80
2023-02-16T08:28:10.334Z,18.50
2023-02-16T08:29:45.134Z,18.37
2023-02-16T08:31:19.969Z,16.77
2023-02-16T08:32:53.921Z,18.80
2023-02-16T08:34:27.431Z,17.67
2023-02-16T08:36:00.862Z,18.03
2023-02-16T08:37:34.505Z,18.33
2023-02-16T08:39:08.746Z,17.50
2023-02-16T08:40:42.194Z,18.43
2023-02-16T08:42:15.625Z,18.30
2023-02-16T08:43:49.182Z,18.47
2023-02-16T08:45:23.951Z,17.23
2023-02-16T08:47:00.759Z,17.83
2023-02-16T08:48:35.604Z,18.07
2023-02-16T08:50:09.182Z,17.13
2023-02-16T08:51:43.622Z,17.43
2023-02-16T08:53:17.028Z,17.03
2023-02-16T08:54:50.548Z,17.10
2023-02-16T08:56:23.900Z,18.37
2023-02-16T08:57:57.334Z,16.63
2023-02-16T08:59:30.717Z,17.83
2023-02-16T09:01:08.139Z,17.43
2023-02-16T09:02:41.965Z,18.60
2023-02-16T09:04:16.023Z,19.23
2023-02-16T09:05:50.006Z,18.00
2023-02-16T09:07:23.815Z,18.50
2023-02-16T09:08:59.169Z,17.60
2023-02-16T09:10:32.943Z,18.17
2023-02-16T09:12:07.078Z,18.43
2023-02-16T09:13:41.112Z,18.27
2023-02-16T09:15:15.958Z,18.83
2023-02-16T09:16:51.057Z,17.70
2023-02-16T09:18:24.424Z,19.03
2023-02-16T09:19:58.006Z,17.63
2023-02-16T09:21:33.342Z,18.47
2023-02-16T09:23:06.869Z,17.57
2023-02-16T09:24:40.637Z,19.07
2023-02-16T09:26:15.172Z,19.00
2023-02-16T09:27:48.668Z,19.27
2023-02-16T09:29:23.040Z,18.50
2023-02-16T09:30:56.863Z,19.60
2023-02-16T09:32:31.945Z,19.87
2023-02-16T09:34:06.351Z,17.50
2023-02-16T09:35:40.372Z,18.63
2023-02-16T09:37:14.612Z,19.47
2023-02-16T09:38:49.032Z,18.03
2023-02-16T09:40:22.560Z,18.53
2023-02-16T09:42:00.701Z,18.80
2023-02-16T09:43:41.889Z,20.07
2023-02-16T09:45:16.651Z,19.30
2023-02-16T09:46:50.565Z,18.90
2023-02-16T09:48:30.466Z,19.00
2023-02-16T09:50:06.429Z,19.27
2023-02-16T09:51:41.911Z,19.00
2023-02-16T09:53:21.602Z,20.10
2023-02-16T09:54:55.888Z,20.53
2023-02-16T09:56:33.019Z,20.30
2023-02-16T09:58:09.079Z,21.03
2023-02-16T09:59:47.308Z,20.73
2023-02-16T10:01:24.657Z,21.37
2023-02-16T10:03:03.542Z,20.67
2023-02-16T10:04:46.267Z,19.90
2023-02-16T10:06:29.015Z,18.90
2023-02-16T10:08:04.524Z,18.90
2023-02-16T10:09:38.091Z,18.83
2023-02-16T10:11:28.250Z,20.03
2023-02-16T10:13:05.230Z,19.67
2023-02-16T10:14:42.243Z,20.40
2023-02-16T10:16:18.346Z,20.80
2023-02-16T10:17:56.129Z,19.37
2023-02-16T10:19:31.315Z,19.80
2023-02-16T10:21:08.349Z,19.10
2023-02-16T10:22:43.462Z,19.93
2023-02-16T10:24:16.955Z,19.80
2023-02-16T10:25:54.728Z,20.00
2023-02-16T10:27:30.252Z,19.33
2023-02-16T10:29:08.025Z,20.17
2023-02-16T10:30:44.574Z,20.17
2023-02-16T10:32:24.983Z,20.47
2023-02-16T10:34:08.082Z,20.13
2023-02-16T10:35:45.463Z,19.90
2023-02-16T10:37:27.399Z,20.13
2023-02-16T10:39:04.320Z,20.07
2023-02-16T10:40:41.183Z,19.37
2023-02-16T10:42:19.422Z,20.43
2023-02-16T10:43:55.094Z,20.23
2023-02-16T10:45:31.914Z,19.77
2023-02-16T10:47:06.584Z,20.17
2023-02-16T10:48:39.936Z,20.17
2023-02-16T10:50:21.101Z,22.50
2023-02-16T10:51:55.448Z,19.00
2023-02-16T10:53:41.317Z,20.43
2023-02-16T10:55:14.904Z,20.30
2023-02-16T10:56:52.492Z,21.13
2023-02-16T10:58:27.767Z,19.73
2023-02-16T11:00:02.745Z,19.60
2023-02-16T11:01:38.266Z,20.20
2023-02-16T11:03:13.778Z,20.77
2023-02-16T11:04:48.380Z,20.17
2023-02-16T11:06:22.935Z,19.67
2023-02-16T11:07:57.730Z,20.43
2023-02-16T11:09:32.791Z,21.03
2023-02-16T11:11:11.214Z,20.13
2023-02-16T11:12:44.659Z,20.47
2023-02-16T11:14:22.698Z,21.17
2023-02-16T11:15:56.775Z,19.57
2023-02-16T11:17:30.201Z,20.13
2023-02-16T11:19:05.903Z,19.60
2023-02-16T11:20:53.162Z,20.60
2023-02-16T11:22:29.007Z,20.53
2023-02-16T11:24:02.852Z,21.20
2023-02-16T11:25:37.991Z,20.70
2023-02-16T11:27:16.867Z,20.70
2023-02-16T11:28:51.059Z,20.57
2023-02-16T11:30:29.912Z,20.80
2023-02-16T11:32:09.593Z,20.17
2023-02-16T11:33:44.448Z,20.93
2023-02-16T11:35:18.053Z,19.77
2023-02-16T11:36:51.766Z,20.50
2023-02-16T11:38:29.814Z,20.03
2023-02-16T11:40:05.263Z,20.53
2023-02-16T11:41:40.038Z,21.07
2023-02-16T11:43:19.081Z,20.93
2023-02-16T11:44:53.752Z,20.97
2023-02-16T11:46:27.496Z,20.13
2023-02-16T11:48:03.280Z,20.63
2023-02-16T11:49:38.380Z,21.67
2023-02-16T11:51:15.269Z,21.53
2023-02-16T11:52:49.589Z,22.00
2023-02-16T11:54:38.514Z,20.83
2023-02-16T11:56:13.801Z,21.20
2023-02-16T11:57:49.008Z,20.33
2023-02-16T11:59:24.285Z,21.63
2023-02-16T12:01:01.934Z,22.57
2023-02-16T12:02:44.597Z,21.27
2023-02-16T12:04:23.414Z,21.83
2023-02-16T12:06:08.271Z,21.30
2023-02-16T12:07:44.187Z,21.13
2023-02-16T12:09:22.814Z,22.33
2023-02-16T12:11:03.396Z,22.17
2023-02-16T12:12:41.703Z,21.77
2023-02-16T12:14:27.331Z,22.63
2023-02-16T12:16:06.220Z,21.47
2023-02-16T12:17:54.936Z,22.33
2023-02-16T12:19:33.716Z,21.27
2023-02-16T12:21:11.540Z,23.23
2023-02-16T12:22:47.903Z,22.37
2023-02-16T12:24:29.911Z,22.60
2023-02-16T12:26:11.409Z,22.27
2023-02-16T12:27:47.068Z,23.23
2023-02-16T12:29:34.836Z,21.57
2023-02-16T12:31:17.511Z,22.07
2023-02-16T12:32:57.792Z,22.30
2023-02-16T12:34:36.803Z,23.07
2023-02-16T12:36:17.235Z,22.67
2023-02-16T12:37:53.432Z,22.67
2023-02-16T12:39:31.969Z,22.63
2023-02-16T12:41:13.109Z,22.13
2023-02-16T12:42:57.164Z,23.83
2023-02-16T12:44:34.359Z,24.50
2023-02-16T12:46:13.369Z,24.07
2023-02-16T12:47:48.883Z,23.43
2023-02-16T12:49:24.527Z,25.10
2023-02-16T12:50:58.587Z,24.77
2023-02-16T12:52:37.296Z,23.67
2023-02-16T12:54:11.488Z,24.40
2023-02-16T12:55:48.099Z,24.97
2023-02-16T12:57:22.123Z,24.13
2023-02-16T12:58:58.983Z,24.23
2023-02-16T13:00:40.594Z,23.70
2023-02-16T13:02:16.985Z,23.83
2023-02-16T13:03:53.992Z,24.00
2023-02-16T13:05:29.875Z,24.20
2023-02-16T13:07:06.803Z,24.60
2023-02-16T13:08:43.156Z,25.23
2023-02-16T13:10:20.470Z,24.10
2023-02-16T13:11:57.236Z,25.30
2023-02-16T13:13:33.704Z,24.77
2023-02-16T13:15:12.358Z,23.73
2023-02-16T13:16:50.030Z,25.80
2023-02-16T13:18:24.552Z,25.40
2023-02-16T13:19:58.090Z,24.53
2023-02-16T13:23:44.052Z,24.13
2023-02-16T13:25:31.211Z,24.33
2023-02-16T13:27:12.019Z,24.07
2023-02-16T13:28:58.560Z,27.40
2023-02-16T13:30:50.047Z,25.07
2023-02-16T13:32:39.283Z,25.10
2023-02-16T13:34:25.044Z,25.03
2023-02-16T13:36:12.297Z,24.07
2023-02-16T13:38:03.449Z,24.63
2023-02-16T13:39:43.201Z,25.07
2023-02-16T13:41:31.501Z,24.80
2023-02-16T13:43:15.668Z,24.60
2023-02-16T13:44:50.837Z,23.87
2023-02-16T13:46:28.056Z,24.80
2023-02-16T13:48:01.949Z,24.77
2023-02-16T13:49:43.200Z,24.70
2023-02-16T13:51:18.252Z,24.90
2023-02-16T13:52:52.996Z,22.90
2023-02-16T13:54:30.171Z,24.90
2023-02-16T13:56:30.813Z,25.40
2023-02-16T13:58:08.727Z,24.57
2023-02-16T13:59:59.917Z,23.87
2023-02-16T14:01:41.920Z,25.03
2023-02-16T14:03:37.551Z,25.10
2023-02-16T14:05:13.291Z,24.30
2023-02-16T14:06:46.948Z,24.60
2023-02-16T14:08:24.617Z,24.70
2023-02-16T14:09:58.112Z,25.27
2023-02-16T14:11:52.932Z,25.80
2023-02-16T14:13:29.518Z,24.70
2023-02-16T14:15:05.279Z,24.23
2023-02-16T14:16:38.792Z,25.93
2023-02-16T14:18:22.352Z,25.80
2023-02-16T14:19:57.223Z,24.50
2023-02-16T14:21:37.759Z,24.37
2023-02-16T14:23:28.927Z,25.30
2023-02-16T14:25:03.726Z,24.93
2023-02-16T14:26:53.183Z,25.97
2023-02-16T14:28:53.622Z,25.00
2023-02-16T14:30:28.843Z,25.77
2023-02-16T14:32:05.391Z,24.60
2023-02-16T14:33:42.589Z,23.90
2023-02-16T14:35:20.622Z,24.93
2023-02-16T14:37:12.744Z,24.10
2023-02-16T14:38:49.240Z,24.57
2023-02-16T14:40:24.267Z,25.10
2023-02-16T14:42:08.082Z,24.70
2023-02-16T14:43:43.095Z,24.43
2023-02-16T14:45:22.949Z,24.63
2023-02-16T14:47:03.767Z,25.23
2023-02-16T14:48:48.774Z,25.23
2023-02-16T14:50:31.549Z,25.83
2023-02-16T14:52:37.084Z,26.50
2023-02-16T14:54:37.373Z,25.77
2023-02-16T14:56:34.657Z,25.87
2023-02-16T14:58:17.351Z,25.77
2023-02-16T14:59:54.302Z,26.70
2023-02-16T15:01:28.112Z,25.07
2023-02-16T15:03:03.850Z,26.30
2023-02-16T15:04:39.792Z,26.50
2023-02-16T15:06:19.174Z,26.90
2023-02-16T15:07:54.116Z,26.27
2023-02-16T15:09:31.165Z,27.27
2023-02-16T15:11:14.570Z,26.10
2023-02-16T15:12:49.068Z,27.00
2023-02-16T15:14:22.493Z,26.20
2023-02-16T15:15:57.907Z,27.90
2023-02-16T15:17:34.436Z,26.90
2023-02-16T15:19:11.937Z,26.63
2023-02-16T15:20:46.924Z,27.27
2023-02-16T15:22:22.128Z,27.97
2023-02-16T15:23:56.743Z,28.37
2023-02-16T15:25:33.872Z,29.83
2023-02-16T15:27:07.491Z,29.93
2023-02-16T15:28:42.104Z,29.27
2023-02-16T15:30:24.100Z,27.97
2023-02-16T15:32:00.180Z,27.70
2023-02-16T15:33:36.270Z,28.63
2023-02-16T15:35:13.978Z,28.57
2023-02-16T15:36:47.473Z,28.17
2023-02-16T15:38:22.752Z,29.90
2023-02-16T15:40:23.200Z,29.43
2023-02-16T15:41:53.288Z,28.13
2023-02-16T15:43:30.904Z,28.40
2023-02-16T15:45:19.470Z,29.77
2023-02-16T15:46:52.893Z,29.73
2023-02-16T15:48:29.319Z,28.77
2023-02-16T15:50:13.070Z,30.00
2023-02-16T15:51:47.009Z,29.07
2023-02-16T15:53:25.074Z,29.60
2023-02-16T15:54:58.635Z,29.43
2023-02-16T15:56:40.445Z,28.37
2023-02-16T15:58:16.404Z,29.10
2023-02-16T15:59:50.701Z,30.60
2023-02-16T16:01:31.510Z,30.80
2023-02-16T16:03:05.854Z,31.80
2023-02-16T16:04:41.849Z,29.57
2023-02-16T16:06:15.337Z,30.20
2023-02-16T16:07:48.857Z,30.67
2023-02-16T16:09:25.015Z,30.60
2023-02-16T16:10:58.769Z,29.93
2023-02-16T16:12:32.356Z,30.80
2023-02-16T16:14:07.908Z,30.40
2023-02-16T16:15:42.571Z,29.63
2023-02-16T16:17:17.088Z,30.90
2023-02-16T16:18:51.462Z,29.33
2023-02-16T16:20:29.431Z,30.47
2023-02-16T16:22:04.235Z,32.60
2023-02-16T16:23:37.711Z,30.53
2023-02-16T16:25:32.614Z,31.20
2023-02-16T16:27:07.705Z,30.97
2023-02-16T16:28:41.203Z,32.00
2023-02-16T16:30:27.512Z,32.53
2023-02-16T16:32:01.415Z,31.73
2023-02-16T16:33:49.762Z,31.77
2023-02-16T16:35:23.381Z,30.90
2023-02-16T16:36:59.952Z,31.30
2023-02-16T16:38:36.023Z,32.93
2023-02-16T16:40:21.915Z,31.90
2023-02-16T16:42:13.053Z,33.53
2023-02-16T16:43:54.373Z,34.63
2023-02-16T16:45:38.901Z,32.30
2023-02-16T16:47:22.239Z,33.67
2023-02-16T16:48:57.316Z,33.23
2023-02-16T16:50:32.621Z,33.60
2023-02-16T16:52:10.108Z,33.30
2023-02-16T16:53:46.157Z,33.27
2023-02-16T16:55:24.831Z,34.00
2023-02-16T16:56:58.530Z,34.93
2023-02-16T16:58:31.972Z,33.37
2023-02-16T17:00:05.639Z,34.63
2023-02-16T17:01:41.532Z,34.80
2023-02-16T17:03:16.369Z,35.20
2023-02-16T17:04:50.170Z,34.37
2023-02-16T17:06:23.647Z,34.70
2023-02-16T17:07:57.136Z,34.97
2023-02-16T17:09:30.575Z,36.17
2023-02-16T17:11:04.855Z,35.80
2023-02-16T17:12:39.317Z,36.07
2023-02-16T17:14:17.092Z,36.43
2023-02-16T17:15:52.963Z,35.33
2023-02-16T17:17:27.776Z,36.57
2023-02-16T17:19:01.250Z,35.63
2023-02-16T17:20:35.313Z,35.03
2023-02-16T17:22:13.186Z,35.47
2023-02-16T17:23:52.840Z,35.00
2023-02-16T17:25:26.821Z,35.37
2023-02-16T17:27:00.286Z,36.03
2023-02-16T17:28:36.680Z,35.77
2023-02-16T17:30:11.072Z,36.83
2023-02-16T17:31:44.577Z,35.23
2023-02-16T17:33:20.137Z,35.93
2023-02-16T17:34:53.708Z,35.73
2023-02-16T17:36:28.002Z,37.20
2023-02-16T17:38:01.586Z,36.97
2023-02-16T17:39:35.199Z,36.60
2023-02-16T17:41:08.711Z,37.57
2023-02-16T17:42:42.235Z,38.27
2023-02-16T17:44:15.581Z,36.20
2023-02-16T17:45:49.783Z,35.33
2023-02-16T17:47:23.404Z,37.43
2023-02-16T17:48:58.142Z,37.97
2023-02-16T17:50:32.945Z,38.00
2023-02-16T17:52:07.533Z,36.53
2023-02-16T17:53:41.898Z,37.87
2023-02-16T17:55:15.260Z,38.07
2023-02-16T17:56:48.830Z,37.33
2023-02-16T17:58:22.473Z,38.17
2023-02-16T17:59:55.988Z,38.37
2023-02-16T18:01:29.408Z,36.60
2023-02-16T18:03:03.115Z,36.27
2023-02-16T18:04:40.911Z,36.33
2023-02-16T18:06:14.828Z,36.57
2023-02-16T18:07:48.200Z,37.40
2023-02-16T18:09:24.486Z,37.23
2023-02-16T18:11:02.050Z,37.57
2023-02-16T18:12:35.698Z,37.27
2023-02-16T18:14:09.533Z,39.33
2023-02-16T18:15:45.252Z,37.53
2023-02-16T18:17:18.896Z,38.30
2023-02-16T18:18:52.507Z,37.20
2023-02-16T18:20:27.699Z,38.70
2023-02-16T18:22:01.258Z,37.40
2023-02-16T18:23:34.824Z,38.00
2023-02-16T18:25:08.440Z,38.40
2023-02-16T18:26:41.832Z,37.17
2023-02-16T18:28:18.263Z,36.97
2023-02-16T18:29:51.818Z,36.67
2023-02-16T18:31:25.277Z,37.00
2023-02-16T18:32:58.678Z,36.53
2023-02-16T18:34:33.355Z,37.73
2023-02-16T18:36:08.590Z,37.00
2023-02-16T18:37:42.760Z,36.87
2023-02-16T18:39:16.123Z,38.60
2023-02-16T18:40:49.540Z,36.73
2023-02-16T18:42:23.025Z,36.10
2023-02-16T18:43:56.888Z,37.53
2023-02-16T18:45:30.341Z,38.47
2023-02-16T18:47:03.818Z,36.67
2023-02-16T18:48:37.308Z,37.37
2023-02-16T18:50:11.723Z,38.80
2023-02-16T18:51:46.458Z,37.93
2023-02-16T18:53:19.930Z,37.40
2023-02-16T18:54:53.700Z,36.20
2023-02-16T18:56:27.555Z,36.90
2023-02-16T18:58:01.110Z,36.30
2023-02-16T18:59:35.166Z,36.53
2023-02-16T19:01:15.403Z,35.40
2023-02-16T19:02:49.884Z,44.07
2023-02-16T19:04:23.274Z,45.10
2023-02-16T19:05:56.753Z,38.30
2023-02-16T19:07:31.492Z,36.93
2023-02-16T19:09:05.241Z,37.33
2023-02-16T19:10:38.830Z,37.13
2023-02-16T19:12:12.257Z,36.60
2023-02-16T19:13:45.938Z,34.77
2023-02-16T19:15:19.644Z,36.00
2023-02-16T19:16:53.062Z,37.73
2023-02-16T19:18:29.150Z,37.10
2023-02-16T19:20:02.525Z,37.60
2023-02-16T19:21:36.039Z,37.27
2023-02-16T19:23:11.081Z,35.80
2023-02-16T19:24:44.636Z,36.23
2023-02-16T19:26:18.919Z,37.97
2023-02-16T19:27:52.542Z,38.30
2023-02-16T19:29:26.065Z,35.83
2023-02-16T19:31:02.386Z,35.60
2023-02-16T19:32:35.815Z,36.43
2023-02-16T19:34:09.224Z,33.97
2023-02-16T19:35:43.129Z,36.67
2023-02-16T19:37:16.698Z,34.43
2023-02-16T19:38:51.503Z,37.40
2023-02-16T19:40:25.662Z,36.43
2023-02-16T19:41:59.895Z,36.43
2023-02-16T19:43:33.461Z,36.40
2023-02-16T19:45:07.276Z,36.97
2023-02-16T19:46:41.464Z,35.97
2023-02-16T19:48:14.929Z,35.93
2023-02-16T19:49:48.645Z,35.87
2023-02-16T19:51:22.008Z,35.47
2023-02-16T19:52:55.876Z,37.67
2023-02-16T19:54:32.477Z,40.90
2023-02-16T19:56:06.692Z,39.53
2023-02-16T19:57:40.255Z,41.70
2023-02-16T19:59:15.442Z,37.43
2023-02-16T20:00:48.950Z,35.93
2023-02-16T20:02:22.768Z,35.27
2023-02-16T20:03:57.515Z,34.93
2023-02-16T20:05:30.928Z,33.40
2023-02-16T20:07:05.068Z,34.70
2023-02-16T20:08:38.674Z,34.93
2023-02-16T20:10:13.522Z,33.50
2023-02-16T20:11:47.095Z,34.70
2023-02-16T20:13:20.476Z,34.40
2023-02-16T20:14:54.068Z,34.53
2023-02-16T20:16:27.909Z,32.97
2023-02-16T20:18:01.560Z,35.17
2023-02-16T20:19:34.987Z,33.57
2023-02-16T20:21:09.416Z,34.47
2023-02-16T20:22:42.869Z,32.67
2023-02-16T20:24:16.963Z,34.97
2023-02-16T20:25:51.829Z,35.40
2023-02-16T20:27:25.315Z,34.63
2023-02-16T20:28:58.828Z,32.43
2023-02-16T20:30:32.210Z,35.10
2023-02-16T20:32:06.327Z,34.50
2023-02-16T20:33:39.823Z,32.70
2023-02-16T20:35:13.201Z,34.77
2023-02-16T20:36:46.631Z,33.27
2023-02-16T20:38:20.063Z,33.40
2023-02-16T20:39:53.484Z,33.33
2023-02-16T20:41:28.250Z,33.37
2023-02-16T20:43:01.657Z,33.93
2023-02-16T20:44:35.018Z,34.03